Time;durP1;ratioP1;P1;durP2;ratioP2;P2;SDS_P1;SDS_P2;PMS_P1;PMS_P2;Temp;Humidity;BMP_temperature;BMP_pressure;BME280_temperature;BME280_humidity;BME280_pressure;Samples;Min_cycle;Max_cycle;Signal;HPM_P1;HPM_P2
2022/05/17 00:00:35;;;;;;;11.55;10.52;;;17.30;99.90;;;;;;4921198;29;20186;-71
2022/05/17 00:03:02;;;;;;;10.68;9.77;;;17.30;99.90;;;;;;4922038;29;20293;-71
2022/05/17 00:05:27;;;;;;;12.02;10.80;;;17.30;99.90;;;;;;4921229;29;20256;-71
2022/05/17 00:07:53;;;;;;;11.57;10.55;;;17.20;99.90;;;;;;4921434;29;20645;-71
2022/05/17 00:10:21;;;;;;;12.10;10.80;;;17.20;99.90;;;;;;4937997;29;20197;-71
2022/05/17 00:12:53;;;;;;;12.50;11.13;;;17.20;99.90;;;;;;4921554;29;20202;-71
2022/05/17 00:15:19;;;;;;;14.63;10.30;;;17.20;99.90;;;;;;4938326;29;20157;-71
2022/05/17 00:18:03;;;;;;;11.43;10.40;;;17.30;99.90;;;;;;4920915;29;20182;-71
2022/05/17 00:20:29;;;;;;;11.95;10.70;;;17.30;99.90;;;;;;4921049;29;20185;-71
2022/05/17 00:22:54;;;;;;;12.05;10.75;;;17.30;99.90;;;;;;4920740;29;20198;-71
2022/05/17 00:25:21;;;;;;;12.20;11.02;;;17.30;99.90;;;;;;4920672;29;20204;-71
2022/05/17 00:27:47;;;;;;;11.43;10.32;;;17.20;99.90;;;;;;4937816;29;20213;-71
2022/05/17 00:30:13;;;;;;;12.02;10.60;;;17.20;99.90;;;;;;4920632;29;20234;-71
2022/05/17 00:32:39;;;;;;;11.50;10.45;;;17.10;99.90;;;;;;4920596;29;20202;-71
2022/05/17 00:35:05;;;;;;;12.57;10.48;;;17.00;99.90;;;;;;4921389;29;20587;-71
2022/05/17 00:37:31;;;;;;;13.13;11.98;;;17.00;99.90;;;;;;4920629;29;20206;-71
2022/05/17 00:39:56;;;;;;;13.13;11.90;;;16.90;99.90;;;;;;4920530;29;20182;-71
2022/05/17 00:42:22;;;;;;;13.77;11.57;;;16.80;99.90;;;;;;4920638;29;20198;-71
2022/05/17 00:44:48;;;;;;;12.90;11.73;;;16.80;99.90;;;;;;4921254;29;20217;-71
2022/05/17 00:47:30;;;;;;;12.40;11.35;;;16.60;99.90;;;;;;4920275;29;20687;-71
2022/05/17 00:50:02;;;;;;;12.65;11.55;;;16.70;99.90;;;;;;4920494;29;20681;-71
2022/05/17 00:52:41;;;;;;;13.82;12.52;;;16.60;99.90;;;;;;4920571;29;20202;-71
2022/05/17 00:55:17;;;;;;;13.45;12.05;;;16.60;99.90;;;;;;4937416;29;20272;-71
2022/05/17 00:58:01;;;;;;;13.45;12.10;;;16.50;99.90;;;;;;4937567;29;20169;-71
2022/05/17 01:00:30;;;;;;;12.25;11.15;;;16.40;99.90;;;;;;4920278;29;20196;-71
2022/05/17 01:03:06;;;;;;;12.68;11.38;;;16.30;99.90;;;;;;4920819;29;20198;-71
2022/05/17 01:05:37;;;;;;;14.30;12.80;;;16.20;99.90;;;;;;4935858;29;20221;-71
2022/05/17 01:08:03;;;;;;;13.90;12.60;;;16.10;99.90;;;;;;4920829;29;20171;-72
2022/05/17 01:10:30;;;;;;;13.82;12.40;;;16.00;99.90;;;;;;4920647;29;20213;-72
2022/05/17 01:15:42;;;;;;;13.25;11.93;;;15.80;99.90;;;;;;4937491;29;20637;-72
2022/05/17 01:18:07;;;;;;;14.73;12.43;;;15.80;99.90;;;;;;4919866;29;20214;-72
2022/05/17 01:20:33;;;;;;;15.50;13.75;;;15.90;99.90;;;;;;4920072;29;20193;-72
2022/05/17 01:22:59;;;;;;;14.63;13.18;;;15.80;99.90;;;;;;4920580;29;20209;-71
2022/05/17 01:25:26;;;;;;;14.55;13.25;;;15.70;99.90;;;;;;4935512;29;20197;-71
2022/05/17 01:27:57;;;;;;;18.65;16.85;;;15.70;99.90;;;;;;4936699;29;20185;-71
2022/05/17 01:30:27;;;;;;;19.55;16.17;;;15.60;99.90;;;;;;4936716;29;20206;-71
2022/05/17 01:32:53;;;;;;;15.38;13.88;;;15.50;99.90;;;;;;4920313;29;20538;-71
2022/05/17 01:35:19;;;;;;;15.38;13.90;;;15.50;99.90;;;;;;4920156;29;20178;-71
2022/05/17 01:37:49;;;;;;;16.65;14.82;;;15.50;99.90;;;;;;4919566;29;20209;-71
2022/05/17 01:40:14;;;;;;;16.35;14.63;;;15.40;99.90;;;;;;4919470;29;20272;-72
2022/05/17 01:42:40;;;;;;;19.30;15.57;;;15.40;99.90;;;;;;4919779;29;20330;-71
2022/05/17 01:45:06;;;;;;;16.17;14.75;;;15.30;99.90;;;;;;4919468;29;20285;-72
2022/05/17 01:47:32;;;;;;;16.90;15.20;;;15.30;99.90;;;;;;4919620;29;20187;-72
2022/05/17 01:49:57;;;;;;;15.43;13.98;;;15.20;99.90;;;;;;4919662;29;20213;-72
2022/05/17 01:52:23;;;;;;;14.80;13.40;;;15.30;99.90;;;;;;4936512;29;20608;-72
2022/05/17 01:54:48;;;;;;;15.32;14.02;;;15.20;99.90;;;;;;4920179;29;20178;-72
2022/05/17 01:57:14;;;;;;;16.63;15.15;;;15.20;99.90;;;;;;4919678;29;20189;-72
2022/05/17 01:59:40;;;;;;;16.10;14.60;;;15.10;99.90;;;;;;4919317;29;20192;-72
2022/05/17 02:02:06;;;;;;;18.40;16.70;;;15.10;99.90;;;;;;4919107;29;20198;-72
2022/05/17 02:04:32;;;;;;;19.77;17.08;;;15.00;99.90;;;;;;4919358;29;20182;-72
2022/05/17 02:06:57;;;;;;;17.55;15.82;;;15.00;99.90;;;;;;4919940;29;20273;-72
2022/05/17 02:09:23;;;;;;;19.02;17.00;;;14.80;99.90;;;;;;4936360;29;20205;-72
2022/05/17 02:11:48;;;;;;;17.30;15.80;;;14.70;99.90;;;;;;4919795;29;20264;-71
2022/05/17 02:14:14;;;;;;;19.13;17.20;;;14.60;99.90;;;;;;4936705;29;20179;-72
2022/05/17 02:16:40;;;;;;;17.73;16.10;;;14.50;99.90;;;;;;4919136;29;20185;-72
2022/05/17 02:19:06;;;;;;;17.35;15.60;;;14.50;99.90;;;;;;4936080;29;20249;-72
2022/05/17 02:21:36;;;;;;;18.77;16.85;;;14.50;99.90;;;;;;4919325;29;20680;-71
2022/05/17 02:24:03;;;;;;;20.67;18.40;;;14.40;99.90;;;;;;4919154;29;20186;-71
2022/05/17 02:26:29;;;;;;;19.98;17.98;;;14.40;99.90;;;;;;4919951;29;20238;-72
2022/05/17 02:28:55;;;;;;;21.10;18.90;;;14.20;99.90;;;;;;4935047;29;20233;-72
2022/05/17 02:31:21;;;;;;;22.48;20.25;;;14.20;99.90;;;;;;4920015;29;20261;-72
2022/05/17 02:33:47;;;;;;;21.65;19.45;;;14.10;99.90;;;;;;4919772;29;20553;-72
2022/05/17 02:36:13;;;;;;;20.95;18.95;;;14.10;99.90;;;;;;4937816;29;20173;-72
2022/05/17 02:38:38;;;;;;;18.35;16.58;;;14.10;99.90;;;;;;4923627;29;20190;-72
2022/05/17 02:44:32;;;;;;;18.17;15.68;;;14.00;99.90;;;;;;4939715;29;20185;-72
2022/05/17 02:46:58;;;;;;;17.33;15.82;;;14.10;99.90;;;;;;4923220;29;20178;-72
2022/05/17 02:49:23;;;;;;;18.27;16.48;;;14.10;99.90;;;;;;4939740;29;20742;-72
2022/05/17 02:51:49;;;;;;;21.65;17.88;;;14.10;99.90;;;;;;4922456;29;20201;-72
2022/05/17 02:54:15;;;;;;;21.45;18.00;;;14.00;99.90;;;;;;4922533;29;20253;-72
2022/05/17 02:56:40;;;;;;;19.48;17.65;;;14.00;99.90;;;;;;4922383;29;20189;-72
2022/05/17 02:59:06;;;;;;;20.15;16.90;;;14.00;99.90;;;;;;4939389;29;20262;-72
2022/05/17 03:01:32;;;;;;;20.02;18.13;;;13.90;99.90;;;;;;4922490;29;20234;-72
2022/05/17 03:03:58;;;;;;;18.85;16.85;;;13.90;99.90;;;;;;4922277;29;20567;-72
2022/05/17 03:06:24;;;;;;;20.60;18.50;;;13.80;99.90;;;;;;4922282;29;20178;-72
2022/05/17 03:08:49;;;;;;;22.90;19.58;;;13.70;99.90;;;;;;4923303;29;20182;-72
2022/05/17 03:11:15;;;;;;;21.58;19.38;;;13.80;99.90;;;;;;4939174;29;20174;-72
2022/05/17 03:13:41;;;;;;;24.73;19.30;;;13.70;99.90;;;;;;4922393;29;20205;-72
2022/05/17 03:16:07;;;;;;;24.80;22.08;;;13.70;99.90;;;;;;4922409;29;20186;-72
2022/05/17 03:18:33;;;;;;;24.17;21.65;;;13.70;99.90;;;;;;4922017;29;20708;-72
2022/05/17 03:20:59;;;;;;;22.58;20.38;;;13.80;99.90;;;;;;4921995;29;20182;-72
2022/05/17 03:23:24;;;;;;;23.85;21.38;;;13.80;99.90;;;;;;4939184;29;20292;-72
2022/05/17 03:25:50;;;;;;;21.02;18.77;;;13.70;99.90;;;;;;4921859;29;20197;-72
2022/05/17 03:28:15;;;;;;;22.52;18.63;;;13.60;99.90;;;;;;4921871;29;20669;-72
2022/05/17 03:30:41;;;;;;;22.30;20.13;;;13.50;99.90;;;;;;4938962;29;20210;-72
2022/05/17 03:33:08;;;;;;;21.98;19.75;;;13.50;99.90;;;;;;4938946;29;20604;-71
2022/05/17 03:35:34;;;;;;;23.83;20.98;;;13.40;99.90;;;;;;4922027;29;20190;-71
2022/05/17 03:38:00;;;;;;;24.20;21.50;;;13.40;99.90;;;;;;4921954;29;20178;-71
2022/05/17 03:40:25;;;;;;;22.52;20.08;;;13.40;99.90;;;;;;4921800;29;20182;-71
2022/05/17 03:42:51;;;;;;;23.20;20.23;;;13.30;99.90;;;;;;4921659;29;20202;-71
2022/05/17 03:45:17;;;;;;;21.45;19.25;;;13.30;99.90;;;;;;4938834;29;20269;-71
2022/05/17 03:47:42;;;;;;;21.63;19.42;;;13.30;99.90;;;;;;4920953;29;20290;-71
2022/05/17 03:50:09;;;;;;;22.30;20.20;;;13.30;99.90;;;;;;4938448;29;20206;-71
2022/05/17 03:52:35;;;;;;;23.08;20.15;;;13.20;99.90;;;;;;4921361;29;20213;-71
2022/05/17 03:55:03;;;;;;;21.25;19.05;;;13.30;99.90;;;;;;4921314;29;20179;-71
2022/05/17 03:57:29;;;;;;;20.65;18.70;;;13.30;99.90;;;;;;4921712;29;20229;-71
2022/05/17 03:59:54;;;;;;;24.52;21.98;;;13.30;99.90;;;;;;4938309;29;20179;-71
2022/05/17 04:02:21;;;;;;;26.92;24.13;;;13.40;99.90;;;;;;4938218;29;20195;-71
2022/05/17 04:04:51;;;;;;;25.15;22.55;;;13.40;99.90;;;;;;4938194;29;20602;-72
2022/05/17 04:07:16;;;;;;;24.42;21.85;;;13.40;99.90;;;;;;4921173;29;20210;-73
2022/05/17 04:09:42;;;;;;;23.98;21.65;;;13.50;99.90;;;;;;4921354;29;20632;-72
2022/05/17 04:12:08;;;;;;;23.10;20.77;;;13.60;99.90;;;;;;4921088;29;20573;-72
2022/05/17 04:14:34;;;;;;;24.60;20.73;;;13.50;99.90;;;;;;4938336;29;20178;-72
2022/05/17 04:16:59;;;;;;;19.55;17.58;;;13.50;99.90;;;;;;4921460;29;20205;-73
2022/05/17 04:19:25;;;;;;;20.77;18.40;;;13.60;99.90;;;;;;4921549;29;20279;-73
2022/05/17 04:21:50;;;;;;;19.92;17.95;;;13.50;99.90;;;;;;4921469;29;20592;-72
2022/05/17 04:24:16;;;;;;;19.00;17.10;;;13.70;99.90;;;;;;4921445;29;20701;-73
2022/05/17 04:26:42;;;;;;;21.50;19.20;;;13.80;99.90;;;;;;4937851;29;20245;-71
2022/05/17 04:29:09;;;;;;;20.02;17.95;;;13.70;99.90;;;;;;4921462;29;20210;-71
2022/05/17 04:31:36;;;;;;;22.02;19.88;;;13.60;99.90;;;;;;4921421;29;20190;-71
2022/05/17 04:34:02;;;;;;;22.10;19.98;;;13.70;99.90;;;;;;4920576;29;20186;-71
2022/05/17 04:36:28;;;;;;;24.67;22.17;;;13.70;99.90;;;;;;4938090;29;20193;-71
2022/05/17 04:38:54;;;;;;;23.55;21.20;;;13.70;99.90;;;;;;4920827;29;20179;-71
2022/05/17 04:41:59;;;;;;;22.73;20.50;;;13.70;99.90;;;;;;4920367;29;20691;-71
2022/05/17 04:44:25;;;;;;;23.80;19.85;;;13.80;99.90;;;;;;4926117;29;20238;-74
2022/05/17 04:46:51;;;;;;;21.48;19.42;;;13.80;99.90;;;;;;4924501;29;20277;-73
2022/05/17 04:49:17;;;;;;;20.52;18.63;;;14.00;99.90;;;;;;4924866;29;20252;-72
2022/05/17 04:51:42;;;;;;;21.58;19.42;;;14.20;99.90;;;;;;4940818;29;20202;-72
2022/05/17 04:54:08;;;;;;;25.65;22.75;;;14.40;99.90;;;;;;4925505;29;20185;-72
2022/05/17 04:56:34;;;;;;;24.58;21.92;;;14.50;99.90;;;;;;4925561;29;20185;-73
2022/05/17 04:59:00;;;;;;;22.40;20.00;;;14.70;99.90;;;;;;4941426;29;20178;-73
2022/05/17 05:01:26;;;;;;;22.50;20.17;;;14.90;99.90;;;;;;4941800;29;20556;-72
2022/05/17 05:03:52;;;;;;;23.20;20.90;;;15.20;99.90;;;;;;4925593;29;20265;-72
2022/05/17 05:06:18;;;;;;;21.55;19.35;;;15.40;99.90;;;;;;4940258;29;20189;-72
2022/05/17 05:08:43;;;;;;;22.52;20.13;;;15.40;99.90;;;;;;4924920;29;20185;-72
2022/05/17 05:11:09;;;;;;;20.92;19.02;;;15.50;99.90;;;;;;4924176;29;20187;-72
2022/05/17 05:13:34;;;;;;;21.55;19.35;;;15.70;99.90;;;;;;4922489;29;20186;-74
2022/05/17 05:16:00;;;;;;;19.42;17.63;;;15.70;99.90;;;;;;4922224;29;20182;-74
2022/05/17 05:18:25;;;;;;;23.02;18.83;;;15.80;99.90;;;;;;4922925;29;20217;-73
2022/05/17 05:21:01;;;;;;;19.38;17.55;;;16.00;99.90;;;;;;4922291;29;20182;-73
2022/05/17 05:23:26;;;;;;;22.05;19.95;;;16.10;99.90;;;;;;4922514;29;20233;-72
2022/05/17 05:25:58;;;;;;;22.85;18.58;;;16.30;99.90;;;;;;4923070;29;20225;-74
2022/05/17 05:28:38;;;;;;;19.92;17.98;;;16.30;99.90;;;;;;4938748;29;20159;-73
2022/05/17 05:31:04;;;;;;;21.30;19.08;;;16.40;99.90;;;;;;4922098;29;20182;-72
2022/05/17 05:33:31;;;;;;;19.98;17.80;;;16.40;99.90;;;;;;4922152;29;20209;-72
2022/05/17 05:35:57;;;;;;;19.50;17.60;;;16.60;99.90;;;;;;4922060;29;20174;-72
2022/05/17 05:38:24;;;;;;;18.85;17.02;;;16.80;99.90;;;;;;4922868;29;20174;-72
2022/05/17 05:40:50;;;;;;;19.67;17.73;;;17.00;99.90;;;;;;4922424;29;20182;-72
2022/05/17 05:43:17;;;;;;;18.88;17.10;;;17.00;99.90;;;;;;4922846;29;20657;-72
2022/05/17 05:45:43;;;;;;;18.33;16.67;;;17.10;99.90;;;;;;4921972;29;20209;-72
2022/05/17 05:48:08;;;;;;;19.27;17.13;;;17.20;99.90;;;;;;4921601;29;20271;-74
2022/05/17 05:50:34;;;;;;;19.23;17.30;;;17.50;99.90;;;;;;4932907;29;20214;-73
2022/05/17 05:53:12;;;;;;;19.98;17.63;;;17.70;99.90;;;;;;4910941;29;20572;-72
2022/05/17 05:55:38;;;;;;;19.35;17.45;;;17.80;99.90;;;;;;4915628;29;20288;-72
2022/05/17 05:58:05;;;;;;;21.58;18.13;;;17.80;99.90;;;;;;4922922;29;20186;-72
2022/05/17 06:00:32;;;;;;;20.02;18.13;;;17.60;99.90;;;;;;4937226;29;20649;-72
2022/05/17 06:02:58;;;;;;;20.60;18.48;;;17.40;99.90;;;;;;4919930;29;20213;-72
2022/05/17 06:05:24;;;;;;;21.02;18.90;;;17.40;99.90;;;;;;4919103;29;20182;-72
2022/05/17 06:07:50;;;;;;;20.70;18.25;;;17.50;99.90;;;;;;4919250;29;20186;-71
2022/05/17 06:10:17;;;;;;;19.95;17.85;;;17.50;99.90;;;;;;4919313;29;20684;-71
2022/05/17 06:12:42;;;;;;;19.40;17.52;;;17.60;99.90;;;;;;4919312;29;20738;-71
2022/05/17 06:15:09;;;;;;;19.00;17.17;;;17.90;99.90;;;;;;4936136;29;20206;-71
2022/05/17 06:17:37;;;;;;;18.38;16.77;;;18.30;99.90;;;;;;4919063;29;20193;-71
2022/05/17 06:20:04;;;;;;;20.13;18.13;;;18.60;99.90;;;;;;4926191;29;20184;-72
2022/05/17 06:22:30;;;;;;;20.15;18.33;;;18.70;99.90;;;;;;4918955;29;20198;-72
2022/05/17 06:24:56;;;;;;;22.40;18.65;;;18.50;99.90;;;;;;4919223;29;20194;-72
2022/05/17 06:27:21;;;;;;;22.17;18.52;;;18.20;99.90;;;;;;4918981;29;20256;-70
2022/05/17 06:29:47;;;;;;;21.60;19.35;;;18.00;99.90;;;;;;4920018;29;20206;-70
2022/05/17 06:32:17;;;;;;;20.08;18.08;;;17.90;99.90;;;;;;4919268;29;20309;-71
2022/05/17 06:34:45;;;;;;;20.70;18.70;;;18.00;99.90;;;;;;4936083;29;20663;-71
2022/05/17 06:37:11;;;;;;;20.38;18.38;;;18.40;99.90;;;;;;4918969;29;20186;-71
2022/05/17 06:39:38;;;;;;;20.60;17.90;;;18.90;99.90;;;;;;4919280;29;20269;-71
2022/05/17 06:42:04;;;;;;;20.85;18.23;;;19.20;99.90;;;;;;4918865;29;20265;-72
2022/05/17 06:44:30;;;;;;;20.75;18.60;;;19.00;99.90;;;;;;4918968;29;20326;-72
2022/05/17 06:47:48;;;;;;;20.13;18.25;;;18.80;99.90;;;;;;4936192;29;20265;-72
2022/05/17 06:50:13;;;;;;;22.45;19.42;;;18.70;99.90;;;;;;4935672;29;20229;-72
2022/05/17 06:52:39;;;;;;;21.58;19.48;;;18.70;99.90;;;;;;4918987;29;20241;-72
2022/05/17 06:55:06;;;;;;;20.98;17.92;;;18.80;99.90;;;;;;4918708;29;20214;-72
2022/05/17 06:57:32;;;;;;;21.50;19.23;;;18.90;99.90;;;;;;4918723;29;20260;-73
2022/05/17 06:59:58;;;;;;;22.02;19.58;;;18.90;99.90;;;;;;4918618;29;20190;-80
2022/05/17 07:02:23;;;;;;;23.63;21.05;;;19.00;99.90;;;;;;4918592;29;20206;-72
2022/05/17 07:04:49;;;;;;;22.95;20.70;;;19.10;99.90;;;;;;4918566;29;20178;-72
2022/05/17 07:07:14;;;;;;;22.02;19.92;;;19.30;99.90;;;;;;4935602;29;20273;-72
2022/05/17 07:09:40;;;;;;;22.25;19.73;;;19.50;99.90;;;;;;4918750;29;20217;-72
2022/05/17 07:14:51;;;;;;;22.52;20.17;;;19.90;99.90;;;;;;4935808;29;20226;-73
2022/05/17 07:17:21;;;;;;;24.73;19.77;;;20.20;99.90;;;;;;4935516;29;20595;-72
2022/05/17 07:19:48;;;;;;;22.80;19.15;;;20.30;99.90;;;;;;4935502;29;20225;-72
2022/05/17 07:22:14;;;;;;;21.27;19.17;;;20.40;99.90;;;;;;4918519;29;20281;-72
2022/05/17 07:24:41;;;;;;;20.58;17.00;;;20.40;99.90;;;;;;4921662;29;20226;-72
2022/05/17 07:27:08;;;;;;;20.60;17.77;;;20.20;99.90;;;;;;4939026;29;20163;-72
2022/05/17 07:29:35;;;;;;;22.58;17.13;;;20.00;99.90;;;;;;4921712;29;20209;-72
2022/05/17 07:32:00;;;;;;;21.40;15.38;;;20.00;99.90;;;;;;4938644;29;20198;-72
2022/05/17 07:34:27;;;;;;;17.73;16.00;;;20.00;99.90;;;;;;4922033;29;20179;-72
2022/05/17 07:36:53;;;;;;;18.35;14.13;;;20.10;99.90;;;;;;4921729;29;20170;-71
2022/05/17 07:39:19;;;;;;;17.30;11.70;;;20.00;99.90;;;;;;4921709;29;20186;-72
2022/05/17 07:41:45;;;;;;;11.43;9.73;;;19.90;99.90;;;;;;4921504;29;20213;-72
2022/05/17 07:44:11;;;;;;;15.25;9.40;;;19.90;99.90;;;;;;4921773;29;20178;-72
2022/05/17 07:46:37;;;;;;;13.98;8.82;;;20.00;99.90;;;;;;4938802;29;20184;-72
2022/05/17 07:49:03;;;;;;;13.02;9.00;;;20.20;99.90;;;;;;4921413;29;20249;-72
2022/05/17 07:51:28;;;;;;;15.00;9.90;;;20.20;98.90;;;;;;4938249;29;20238;-72
2022/05/17 07:53:55;;;;;;;15.38;10.13;;;20.40;99.70;;;;;;4921565;29;20218;-72
2022/05/17 07:56:20;;;;;;;14.90;10.88;;;20.70;99.90;;;;;;4938345;29;20162;-72
2022/05/17 07:58:46;;;;;;;15.85;7.70;;;21.00;99.30;;;;;;4921693;29;20193;-72
2022/05/17 08:01:12;;;;;;;11.77;6.93;;;21.30;96.60;;;;;;4921459;29;20178;-72
2022/05/17 08:03:38;;;;;;;8.50;7.05;;;21.50;93.40;;;;;;4921431;29;20198;-72
2022/05/17 08:06:05;;;;;;;24.73;8.80;;;21.50;93.00;;;;;;4937807;29;20197;-72
2022/05/17 08:08:31;;;;;;;13.38;7.88;;;21.30;94.60;;;;;;4921123;29;20175;-72
2022/05/17 08:10:56;;;;;;;11.35;8.10;;;21.50;95.20;;;;;;4937889;29;20201;-72
2022/05/17 08:13:23;;;;;;;10.73;7.03;;;21.60;95.20;;;;;;4921313;29;20205;-72
2022/05/17 08:15:50;;;;;;;10.65;7.18;;;21.50;94.00;;;;;;4921253;29;20574;-72
2022/05/17 08:18:17;;;;;;;10.20;7.65;;;21.20;92.50;;;;;;4921147;29;20222;-72
2022/05/17 08:20:43;;;;;;;19.73;8.48;;;21.20;91.90;;;;;;4921182;29;20705;-72
2022/05/17 08:23:09;;;;;;;12.98;7.72;;;21.00;93.20;;;;;;4920637;29;20202;-72
2022/05/17 08:28:20;;;;;;;10.05;6.80;;;21.20;92.00;;;;;;4940823;29;20260;-72
2022/05/17 08:30:47;;;;;;;9.48;7.38;;;21.40;92.90;;;;;;4921058;29;20247;-72
2022/05/17 08:33:17;;;;;;;11.88;6.40;;;21.20;90.80;;;;;;4937567;29;20214;-72
2022/05/17 08:35:46;;;;;;;9.98;7.15;;;21.30;90.90;;;;;;4921398;29;20176;-72
2022/05/17 08:38:15;;;;;;;15.80;7.03;;;21.40;91.30;;;;;;4920792;29;20205;-72
2022/05/17 08:40:49;;;;;;;11.07;6.55;;;21.30;91.00;;;;;;4920508;29;20273;-72
2022/05/17 08:43:26;;;;;;;14.25;5.95;;;21.50;91.20;;;;;;4920352;29;20209;-72
2022/05/17 08:46:16;;;;;;;11.55;6.18;;;21.60;89.80;;;;;;4920465;29;20170;-72
2022/05/17 08:49:17;;;;;;;17.27;6.05;;;21.90;89.30;;;;;;4920410;29;20265;-72
2022/05/17 08:51:59;;;;;;;9.80;5.57;;;22.20;87.80;;;;;;4907877;29;20222;-71
2022/05/17 08:54:34;;;;;;;9.63;5.45;;;22.40;84.40;;;;;;4920307;29;20677;-71
2022/05/17 08:57:22;;;;;;;10.95;6.03;;;22.40;83.80;;;;;;4920448;29;20629;-71
2022/05/17 08:59:48;;;;;;;9.63;6.40;;;22.00;83.40;;;;;;4937107;29;20206;-71
2022/05/17 09:02:50;;;;;;;12.13;6.65;;;21.80;87.00;;;;;;4937348;29;20252;-71
2022/05/17 09:05:38;;;;;;;15.48;6.70;;;21.70;88.30;;;;;;4919981;29;20189;-71
2022/05/17 09:08:04;;;;;;;7.10;5.50;;;21.70;88.50;;;;;;4936648;29;20182;-71
2022/05/17 09:10:38;;;;;;;11.88;5.93;;;21.90;89.00;;;;;;4919945;29;20261;-71
2022/05/17 09:13:32;;;;;;;9.77;5.85;;;22.20;89.50;;;;;;4922755;29;20236;-72
2022/05/17 09:15:59;;;;;;;9.40;5.90;;;22.60;86.80;;;;;;4943182;29;20162;-73
2022/05/17 09:18:28;;;;;;;7.10;6.00;;;22.90;87.60;;;;;;4926505;29;20182;-74
2022/05/17 09:20:54;;;;;;;6.85;6.03;;;23.20;84.80;;;;;;4943002;29;20178;-74
2022/05/17 09:23:20;;;;;;;7.03;6.10;;;23.40;84.50;;;;;;4925208;29;20290;-74
2022/05/17 09:25:48;;;;;;;8.00;6.30;;;23.20;80.10;;;;;;4924832;29;20225;-73
2022/05/17 09:28:22;;;;;;;9.15;6.10;;;23.10;81.30;;;;;;4925976;29;20264;-73
2022/05/17 09:31:05;;;;;;;9.77;5.90;;;23.20;78.40;;;;;;4925965;29;20209;-73
2022/05/17 09:33:31;;;;;;;7.78;5.60;;;23.30;82.60;;;;;;4924775;29;20205;-73
2022/05/17 09:36:00;;;;;;;12.45;5.55;;;23.50;81.40;;;;;;4941267;29;20183;-73
2022/05/17 09:38:30;;;;;;;7.95;5.13;;;23.80;77.90;;;;;;4925700;29;20194;-72
2022/05/17 09:40:57;;;;;;;9.70;6.43;;;23.70;76.90;;;;;;4943296;29;20162;-72
2022/05/17 09:43:46;;;;;;;6.90;5.28;;;23.00;76.40;;;;;;4925771;29;20222;-72
2022/05/17 09:46:14;;;;;;;9.07;5.10;;;22.60;78.40;;;;;;4926069;29;20200;-73
2022/05/17 09:54:47;;;;;;;5.18;3.90;;;23.60;75.00;;;;;;4943168;29;20169;-73
2022/05/17 09:57:21;;;;;;;8.48;3.90;;;23.90;71.60;;;;;;4940706;29;20183;-73
2022/05/17 09:59:49;;;;;;;6.57;3.70;;;23.90;72.40;;;;;;4925550;29;20185;-73
2022/05/17 10:02:29;;;;;;;7.35;3.63;;;23.90;70.60;;;;;;4942788;29;20658;-73
2022/05/17 10:04:56;;;;;;;5.43;3.53;;;24.10;70.40;;;;;;4926362;29;20190;-72
2022/05/17 10:07:27;;;;;;;9.70;3.58;;;24.20;69.70;;;;;;4942169;29;20174;-73
2022/05/17 10:09:53;;;;;;;6.10;4.20;;;24.00;69.40;;;;;;4943390;29;20245;-72
2022/05/17 10:12:38;;;;;;;5.82;3.97;;;23.90;69.40;;;;;;4924320;29;20232;-73
2022/05/17 10:15:09;;;;;;;10.05;4.25;;;24.10;71.90;;;;;;4921770;29;20186;-73
2022/05/17 10:17:49;;;;;;;11.07;4.30;;;24.20;73.10;;;;;;4921484;29;20178;-73
2022/05/17 10:20:23;;;;;;;5.25;3.85;;;24.20;73.10;;;;;;4935530;29;20186;-74
2022/05/17 10:22:52;;;;;;;16.80;4.57;;;24.10;71.70;;;;;;4934843;29;20673;-74
2022/05/17 10:25:33;;;;;;;7.45;3.90;;;24.10;74.10;;;;;;4919190;29;20194;-74
2022/05/17 10:28:09;;;;;;;4.00;3.60;;;24.30;73.50;;;;;;4920866;29;20183;-72
2022/05/17 10:31:13;;;;;;;4.90;3.00;;;24.30;71.40;;;;;;4919342;29;20202;-72
2022/05/17 10:33:57;;;;;;;7.05;3.53;;;23.90;72.20;;;;;;4934935;29;20166;-71
2022/05/17 10:36:30;;;;;;;4.95;3.50;;;23.60;74.50;;;;;;4919444;29;20174;-72
2022/05/17 10:39:06;;;;;;;4.47;3.00;;;23.30;75.00;;;;;;4935819;29;20167;-72
2022/05/17 10:41:32;;;;;;;12.98;3.80;;;23.40;74.70;;;;;;4918913;29;20306;-72
2022/05/17 10:43:58;;;;;;;5.57;3.30;;;23.30;73.00;;;;;;4919125;29;20187;-72
2022/05/17 10:46:30;;;;;;;5.45;3.00;;;23.60;73.10;;;;;;4919133;29;20186;-71
2022/05/17 10:49:06;;;;;;;5.80;3.40;;;23.50;70.40;;;;;;4918554;29;20266;-71
2022/05/17 10:52:03;;;;;;;4.45;3.30;;;23.90;71.90;;;;;;4919035;29;20249;-72
2022/05/17 10:54:35;;;;;;;8.43;3.55;;;23.90;68.00;;;;;;4918818;29;20185;-71
2022/05/17 10:57:35;;;;;;;6.45;3.00;;;23.80;70.80;;;;;;4935832;29;20168;-72
2022/05/17 11:00:09;;;;;;;4.13;3.05;;;23.90;70.60;;;;;;4890188;29;20200;-72
2022/05/17 11:02:50;;;;;;;4.22;2.75;;;23.90;70.10;;;;;;4922208;29;20812;-71
2022/05/17 11:05:21;;;;;;;6.35;2.75;;;24.00;68.90;;;;;;4938797;29;20178;-72
2022/05/17 11:07:53;;;;;;;7.15;3.00;;;24.40;67.50;;;;;;4939241;29;20175;-72
2022/05/17 11:10:30;;;;;;;3.60;2.88;;;24.40;66.40;;;;;;4939944;29;20229;-71
2022/05/17 11:13:34;;;;;;;3.33;2.60;;;24.10;67.10;;;;;;4922272;29;20293;-71
2022/05/17 11:16:16;;;;;;;6.80;2.80;;;23.60;66.70;;;;;;4905385;29;20193;-73
2022/05/17 11:19:06;;;;;;;10.77;3.30;;;23.20;69.10;;;;;;4939793;29;20618;-73
2022/05/17 11:21:50;;;;;;;4.47;3.10;;;23.00;72.90;;;;;;4926084;29;20289;-73
2022/05/17 11:24:31;;;;;;;8.25;4.28;;;22.90;71.40;;;;;;4926426;29;20237;-73
2022/05/17 11:27:31;;;;;;;4.80;3.10;;;23.00;73.20;;;;;;4927682;29;20590;-73
2022/05/17 11:30:30;;;;;;;7.45;3.92;;;23.20;73.20;;;;;;4926760;29;20293;-73
2022/05/17 11:33:12;;;;;;;6.28;3.38;;;23.60;71.90;;;;;;4944710;29;20198;-73
2022/05/17 11:35:52;;;;;;;6.53;3.53;;;24.10;71.50;;;;;;4942750;29;20162;-72
2022/05/17 11:38:37;;;;;;;4.93;3.20;;;24.20;69.20;;;;;;4922540;29;20182;-72
2022/05/17 11:41:08;;;;;;;7.35;3.25;;;24.10;67.70;;;;;;4928260;29;20198;-71
2022/05/17 11:43:42;;;;;;;11.90;3.10;;;24.20;66.30;;;;;;4921560;29;20202;-71
2022/05/17 11:46:35;;;;;;;6.45;3.20;;;24.20;66.20;;;;;;4922550;29;20225;-72
2022/05/17 11:49:07;;;;;;;5.30;2.75;;;24.40;65.40;;;;;;4922782;29;20178;-73
2022/05/17 11:52:00;;;;;;;5.47;2.90;;;24.50;63.80;;;;;;4925042;29;20687;-73
2022/05/17 11:54:46;;;;;;;4.85;2.95;;;24.40;64.90;;;;;;4924155;29;20281;-73
2022/05/17 11:57:28;;;;;;;7.60;3.30;;;24.50;65.60;;;;;;4924547;29;20186;-73
2022/05/17 11:59:55;;;;;;;7.03;2.92;;;24.80;66.10;;;;;;4924052;29;20260;-73
2022/05/17 12:02:44;;;;;;;5.47;2.95;;;25.10;66.80;;;;;;4940118;29;20206;-74
2022/05/17 12:05:31;;;;;;;4.35;2.92;;;25.40;64.60;;;;;;4940073;29;20194;-74
2022/05/17 12:08:28;;;;;;;3.72;2.88;;;25.10;64.70;;;;;;4921856;29;20196;-74
2022/05/17 12:11:32;;;;;;;5.63;2.95;;;24.50;64.50;;;;;;4938710;29;20567;-72
2022/05/17 12:14:18;;;;;;;3.80;2.72;;;24.10;66.20;;;;;;4921718;29;20178;-72
2022/05/17 12:16:54;;;;;;;5.95;2.63;;;23.70;66.40;;;;;;4921377;29;20197;-72
2022/05/17 12:19:47;;;;;;;4.03;2.63;;;23.80;67.10;;;;;;4938050;29;20166;-72
2022/05/17 12:22:22;;;;;;;8.98;2.72;;;24.10;66.70;;;;;;4921141;29;20673;-72
2022/05/17 12:25:13;;;;;;;4.18;2.67;;;24.50;66.20;;;;;;4921014;29;20194;-72
2022/05/17 12:27:44;;;;;;;7.43;2.65;;;24.90;64.80;;;;;;4921689;29;20186;-71
2022/05/17 12:31:02;;;;;;;4.97;2.50;;;25.10;63.30;;;;;;4937642;29;20713;-71
2022/05/17 12:33:32;;;;;;;5.25;2.60;;;25.30;60.00;;;;;;4920681;29;20206;-72
2022/05/17 12:36:18;;;;;;;6.47;2.78;;;25.50;59.60;;;;;;4937651;29;20257;-72
2022/05/17 12:44:38;;;;;;;3.45;2.38;;;24.90;58.90;;;;;;4937627;29;20162;-72
2022/05/17 12:47:09;;;;;;;2.67;2.20;;;24.80;60.10;;;;;;4920880;29;20552;-72
2022/05/17 12:49:35;;;;;;;7.90;2.50;;;24.60;60.30;;;;;;4937433;29;20215;-72
2022/05/17 12:52:15;;;;;;;6.07;2.50;;;24.30;64.20;;;;;;4920241;29;20673;-72
2022/05/17 12:54:41;;;;;;;5.18;2.38;;;24.50;63.20;;;;;;4937338;29;20170;-72
2022/05/17 12:57:16;;;;;;;4.38;2.42;;;24.70;63.30;;;;;;4920674;29;20265;-72
2022/05/17 12:59:42;;;;;;;10.43;2.50;;;24.70;59.40;;;;;;4920377;29;20598;-72
2022/05/17 13:02:07;;;;;;;3.88;2.30;;;24.70;60.00;;;;;;4920089;29;20206;-72
2022/05/17 13:04:39;;;;;;;4.32;2.15;;;24.60;59.20;;;;;;4920655;29;20184;-72
2022/05/17 13:07:13;;;;;;;3.05;2.22;;;24.40;59.50;;;;;;4920129;29;20186;-76
2022/05/17 13:09:57;;;;;;;5.78;2.17;;;24.20;61.00;;;;;;4921529;29;20672;-73
2022/05/17 13:12:26;;;;;;;6.65;2.53;;;23.80;63.60;;;;;;4939778;29;20712;-72
2022/05/17 13:14:52;;;;;;;3.67;2.33;;;23.30;64.20;;;;;;4920327;29;20193;-71